sensor_id;sensor_type;location;lat;lon;timestamp;P1;durP1;ratioP1;P2;durP2;ratioP2
14203;SDS011;7185;51.854;6.622;2023-05-13T00:01:04;11.75;;;8.10;;
14203;SDS011;7185;51.854;6.622;2023-05-13T00:03:36;9.02;;;7.20;;
14203;SDS011;7185;51.854;6.622;2023-05-13T00:06:08;8.65;;;6.95;;
14203;SDS011;7185;51.854;6.622;2023-05-13T00:08:39;8.00;;;7.00;;
14203;SDS011;7185;51.854;6.622;2023-05-13T00:11:11;10.38;;;7.32;;
14203;SDS011;7185;51.854;6.622;2023-05-13T00:13:45;11.02;;;7.15;;
14203;SDS011;7185;51.854;6.622;2023-05-13T00:16:17;10.65;;;7.03;;
14203;SDS011;7185;51.854;6.622;2023-05-13T00:18:49;10.63;;;6.88;;
14203;SDS011;7185;51.854;6.622;2023-05-13T00:21:20;9.60;;;7.05;;
14203;SDS011;7185;51.854;6.622;2023-05-13T00:23:52;12.30;;;7.22;;
14203;SDS011;7185;51.854;6.622;2023-05-13T00:26:24;9.27;;;7.70;;
14203;SDS011;7185;51.854;6.622;2023-05-13T00:28:57;20.95;;;7.78;;
14203;SDS011;7185;51.854;6.622;2023-05-13T00:31:29;9.07;;;7.35;;
14203;SDS011;7185;51.854;6.622;2023-05-13T00:34:00;16.33;;;7.97;;
14203;SDS011;7185;51.854;6.622;2023-05-13T00:36:33;13.55;;;7.78;;
14203;SDS011;7185;51.854;6.622;2023-05-13T00:39:04;13.98;;;7.65;;
14203;SDS011;7185;51.854;6.622;2023-05-13T00:41:36;9.85;;;7.45;;
14203;SDS011;7185;51.854;6.622;2023-05-13T00:44:09;12.77;;;7.50;;
14203;SDS011;7185;51.854;6.622;2023-05-13T00:46:41;18.23;;;7.63;;
14203;SDS011;7185;51.854;6.622;2023-05-13T00:49:13;11.45;;;7.90;;
14203;SDS011;7185;51.854;6.622;2023-05-13T00:51:44;10.40;;;7.32;;
14203;SDS011;7185;51.854;6.622;2023-05-13T00:54:16;12.02;;;7.28;;
14203;SDS011;7185;51.854;6.622;2023-05-13T00:56:48;13.60;;;8.00;;
14203;SDS011;7185;51.854;6.622;2023-05-13T00:59:25;12.95;;;7.82;;
14203;SDS011;7185;51.854;6.622;2023-05-13T01:02:01;11.98;;;7.90;;
14203;SDS011;7185;51.854;6.622;2023-05-13T01:04:41;13.88;;;7.63;;
14203;SDS011;7185;51.854;6.622;2023-05-13T01:07:22;11.85;;;8.60;;
14203;SDS011;7185;51.854;6.622;2023-05-13T01:10:05;12.98;;;8.48;;
14203;SDS011;7185;51.854;6.622;2023-05-13T01:12:42;15.15;;;8.88;;
14203;SDS011;7185;51.854;6.622;2023-05-13T01:15:19;11.30;;;9.20;;
14203;SDS011;7185;51.854;6.622;2023-05-13T01:17:56;11.82;;;8.48;;
14203;SDS011;7185;51.854;6.622;2023-05-13T01:20:32;14.52;;;8.85;;
14203;SDS011;7185;51.854;6.622;2023-05-13T01:23:06;13.88;;;8.23;;
14203;SDS011;7185;51.854;6.622;2023-05-13T01:25:37;12.23;;;8.68;;
14203;SDS011;7185;51.854;6.622;2023-05-13T01:28:09;11.63;;;8.35;;
14203;SDS011;7185;51.854;6.622;2023-05-13T01:30:42;13.65;;;7.85;;
14203;SDS011;7185;51.854;6.622;2023-05-13T01:33:14;17.05;;;8.10;;
14203;SDS011;7185;51.854;6.622;2023-05-13T01:35:47;13.07;;;8.55;;
14203;SDS011;7185;51.854;6.622;2023-05-13T01:38:22;14.73;;;8.48;;
14203;SDS011;7185;51.854;6.622;2023-05-13T01:40:56;12.18;;;8.60;;
14203;SDS011;7185;51.854;6.622;2023-05-13T01:43:29;15.38;;;8.43;;
14203;SDS011;7185;51.854;6.622;2023-05-13T01:46:01;12.93;;;9.07;;
14203;SDS011;7185;51.854;6.622;2023-05-13T01:48:32;12.63;;;8.60;;
14203;SDS011;7185;51.854;6.622;2023-05-13T01:51:07;11.90;;;8.45;;
14203;SDS011;7185;51.854;6.622;2023-05-13T01:53:41;18.10;;;9.52;;
14203;SDS011;7185;51.854;6.622;2023-05-13T01:56:12;11.02;;;8.88;;
14203;SDS011;7185;51.854;6.622;2023-05-13T01:58:44;12.45;;;8.85;;
14203;SDS011;7185;51.854;6.622;2023-05-13T02:01:16;13.75;;;9.25;;
14203;SDS011;7185;51.854;6.622;2023-05-13T02:03:48;12.13;;;8.48;;
14203;SDS011;7185;51.854;6.622;2023-05-13T02:06:20;16.58;;;8.55;;
14203;SDS011;7185;51.854;6.622;2023-05-13T02:08:53;12.02;;;8.75;;
14203;SDS011;7185;51.854;6.622;2023-05-13T02:11:24;14.43;;;9.15;;
14203;SDS011;7185;51.854;6.622;2023-05-13T02:13:56;13.77;;;9.68;;
14203;SDS011;7185;51.854;6.622;2023-05-13T02:16:28;13.25;;;9.20;;
14203;SDS011;7185;51.854;6.622;2023-05-13T02:19:00;21.52;;;10.30;;
14203;SDS011;7185;51.854;6.622;2023-05-13T02:21:32;12.60;;;9.45;;
14203;SDS011;7185;51.854;6.622;2023-05-13T02:24:05;14.90;;;9.43;;
14203;SDS011;7185;51.854;6.622;2023-05-13T02:26:40;11.45;;;8.52;;
14203;SDS011;7185;51.854;6.622;2023-05-13T02:29:14;13.30;;;9.07;;
14203;SDS011;7185;51.854;6.622;2023-05-13T02:31:45;20.05;;;10.65;;
14203;SDS011;7185;51.854;6.622;2023-05-13T02:34:17;12.00;;;10.00;;
14203;SDS011;7185;51.854;6.622;2023-05-13T02:36:49;15.20;;;10.07;;
14203;SDS011;7185;51.854;6.622;2023-05-13T02:39:22;13.55;;;9.88;;
14203;SDS011;7185;51.854;6.622;2023-05-13T02:41:54;12.95;;;10.35;;
14203;SDS011;7185;51.854;6.622;2023-05-13T02:44:26;11.88;;;9.77;;
14203;SDS011;7185;51.854;6.622;2023-05-13T02:46:58;13.07;;;10.25;;
14203;SDS011;7185;51.854;6.622;2023-05-13T02:49:30;11.68;;;9.32;;
14203;SDS011;7185;51.854;6.622;2023-05-13T02:52:01;12.82;;;9.52;;
14203;SDS011;7185;51.854;6.622;2023-05-13T02:54:34;17.35;;;10.75;;
14203;SDS011;7185;51.854;6.622;2023-05-13T02:57:06;12.82;;;9.73;;
14203;SDS011;7185;51.854;6.622;2023-05-13T02:59:37;16.77;;;10.40;;
14203;SDS011;7185;51.854;6.622;2023-05-13T03:02:09;12.98;;;10.30;;
14203;SDS011;7185;51.854;6.622;2023-05-13T03:04:43;16.63;;;10.35;;
14203;SDS011;7185;51.854;6.622;2023-05-13T03:07:15;17.45;;;11.27;;
14203;SDS011;7185;51.854;6.622;2023-05-13T03:09:48;14.98;;;10.60;;
14203;SDS011;7185;51.854;6.622;2023-05-13T03:12:20;15.05;;;9.98;;
14203;SDS011;7185;51.854;6.622;2023-05-13T03:14:52;17.92;;;10.68;;
14203;SDS011;7185;51.854;6.622;2023-05-13T03:17:26;14.15;;;10.93;;
14203;SDS011;7185;51.854;6.622;2023-05-13T03:20:00;17.55;;;11.48;;
14203;SDS011;7185;51.854;6.622;2023-05-13T03:22:31;14.43;;;10.27;;
14203;SDS011;7185;51.854;6.622;2023-05-13T03:25:05;19.52;;;10.98;;
14203;SDS011;7185;51.854;6.622;2023-05-13T03:27:37;17.92;;;12.05;;
14203;SDS011;7185;51.854;6.622;2023-05-13T03:30:10;14.45;;;11.73;;
14203;SDS011;7185;51.854;6.622;2023-05-13T03:32:42;14.50;;;10.68;;
14203;SDS011;7185;51.854;6.622;2023-05-13T03:35:13;17.98;;;11.45;;
14203;SDS011;7185;51.854;6.622;2023-05-13T03:37:45;15.95;;;10.82;;
14203;SDS011;7185;51.854;6.622;2023-05-13T03:40:19;18.23;;;11.65;;
14203;SDS011;7185;51.854;6.622;2023-05-13T03:42:50;17.17;;;11.82;;
14203;SDS011;7185;51.854;6.622;2023-05-13T03:45:22;16.48;;;12.32;;
14203;SDS011;7185;51.854;6.622;2023-05-13T03:47:54;16.05;;;12.00;;
14203;SDS011;7185;51.854;6.622;2023-05-13T03:50:25;20.48;;;12.43;;
14203;SDS011;7185;51.854;6.622;2023-05-13T03:52:57;20.88;;;12.23;;
14203;SDS011;7185;51.854;6.622;2023-05-13T03:55:30;19.92;;;13.10;;
14203;SDS011;7185;51.854;6.622;2023-05-13T03:58:09;17.63;;;13.38;;
14203;SDS011;7185;51.854;6.622;2023-05-13T04:00:42;20.00;;;12.48;;
14203;SDS011;7185;51.854;6.622;2023-05-13T04:03:15;18.52;;;12.38;;
14203;SDS011;7185;51.854;6.622;2023-05-13T04:05:51;15.95;;;12.93;;
14203;SDS011;7185;51.854;6.622;2023-05-13T04:08:23;15.27;;;11.98;;
14203;SDS011;7185;51.854;6.622;2023-05-13T04:10:56;19.63;;;13.10;;
14203;SDS011;7185;51.854;6.622;2023-05-13T04:13:27;18.52;;;13.65;;
14203;SDS011;7185;51.854;6.622;2023-05-13T04:15:59;19.10;;;12.77;;
14203;SDS011;7185;51.854;6.622;2023-05-13T04:18:32;17.48;;;12.60;;
14203;SDS011;7185;51.854;6.622;2023-05-13T04:21:06;22.25;;;13.77;;
14203;SDS011;7185;51.854;6.622;2023-05-13T04:23:38;18.88;;;13.27;;
14203;SDS011;7185;51.854;6.622;2023-05-13T04:26:12;21.67;;;13.82;;
14203;SDS011;7185;51.854;6.622;2023-05-13T04:28:43;20.95;;;13.65;;
14203;SDS011;7185;51.854;6.622;2023-05-13T04:31:16;22.52;;;13.60;;
14203;SDS011;7185;51.854;6.622;2023-05-13T04:33:51;19.88;;;13.80;;
14203;SDS011;7185;51.854;6.622;2023-05-13T04:36:22;19.45;;;14.52;;
14203;SDS011;7185;51.854;6.622;2023-05-13T04:38:55;21.98;;;14.15;;
14203;SDS011;7185;51.854;6.622;2023-05-13T04:41:28;19.00;;;13.73;;
14203;SDS011;7185;51.854;6.622;2023-05-13T04:44:00;21.10;;;14.65;;
14203;SDS011;7185;51.854;6.622;2023-05-13T04:46:31;17.98;;;13.95;;
14203;SDS011;7185;51.854;6.622;2023-05-13T04:49:03;19.02;;;13.35;;
14203;SDS011;7185;51.854;6.622;2023-05-13T04:51:34;19.50;;;14.20;;
14203;SDS011;7185;51.854;6.622;2023-05-13T04:54:06;19.15;;;14.32;;
14203;SDS011;7185;51.854;6.622;2023-05-13T04:56:39;21.83;;;14.25;;
14203;SDS011;7185;51.854;6.622;2023-05-13T04:59:11;21.08;;;14.75;;
14203;SDS011;7185;51.854;6.622;2023-05-13T05:01:42;17.55;;;14.05;;
14203;SDS011;7185;51.854;6.622;2023-05-13T05:04:14;23.77;;;14.57;;
14203;SDS011;7185;51.854;6.622;2023-05-13T05:06:46;20.90;;;14.23;;
14203;SDS011;7185;51.854;6.622;2023-05-13T05:09:17;22.55;;;14.50;;
14203;SDS011;7185;51.854;6.622;2023-05-13T05:11:51;21.52;;;14.52;;
14203;SDS011;7185;51.854;6.622;2023-05-13T05:14:23;19.33;;;14.40;;
14203;SDS011;7185;51.854;6.622;2023-05-13T05:16:55;20.58;;;15.43;;
14203;SDS011;7185;51.854;6.622;2023-05-13T05:19:26;21.83;;;13.98;;
14203;SDS011;7185;51.854;6.622;2023-05-13T05:21:58;21.25;;;13.25;;
14203;SDS011;7185;51.854;6.622;2023-05-13T05:24:30;17.98;;;14.13;;
14203;SDS011;7185;51.854;6.622;2023-05-13T05:27:03;17.60;;;13.68;;
14203;SDS011;7185;51.854;6.622;2023-05-13T05:29:35;17.90;;;14.52;;
14203;SDS011;7185;51.854;6.622;2023-05-13T05:32:06;19.35;;;13.48;;
14203;SDS011;7185;51.854;6.622;2023-05-13T05:34:38;18.88;;;13.27;;
14203;SDS011;7185;51.854;6.622;2023-05-13T05:37:10;19.08;;;14.20;;
14203;SDS011;7185;51.854;6.622;2023-05-13T05:39:42;20.15;;;13.57;;
14203;SDS011;7185;51.854;6.622;2023-05-13T05:42:15;22.45;;;14.00;;
14203;SDS011;7185;51.854;6.622;2023-05-13T05:44:47;19.33;;;14.30;;
14203;SDS011;7185;51.854;6.622;2023-05-13T05:47:18;22.35;;;13.82;;
14203;SDS011;7185;51.854;6.622;2023-05-13T05:49:50;18.58;;;13.20;;
14203;SDS011;7185;51.854;6.622;2023-05-13T05:52:22;19.95;;;14.23;;
14203;SDS011;7185;51.854;6.622;2023-05-13T05:54:53;16.90;;;13.52;;
14203;SDS011;7185;51.854;6.622;2023-05-13T05:57:27;20.73;;;13.07;;
14203;SDS011;7185;51.854;6.622;2023-05-13T05:59:58;18.55;;;13.40;;
14203;SDS011;7185;51.854;6.622;2023-05-13T06:02:30;17.38;;;13.32;;
14203;SDS011;7185;51.854;6.622;2023-05-13T06:05:02;18.85;;;13.55;;
14203;SDS011;7185;51.854;6.622;2023-05-13T06:07:34;22.13;;;13.40;;
14203;SDS011;7185;51.854;6.622;2023-05-13T06:10:06;16.10;;;12.98;;
14203;SDS011;7185;51.854;6.622;2023-05-13T06:12:39;18.95;;;14.02;;
14203;SDS011;7185;51.854;6.622;2023-05-13T06:15:11;17.98;;;14.05;;
14203;SDS011;7185;51.854;6.622;2023-05-13T06:17:42;19.05;;;13.80;;
14203;SDS011;7185;51.854;6.622;2023-05-13T06:20:14;17.73;;;12.80;;
14203;SDS011;7185;51.854;6.622;2023-05-13T06:22:46;17.63;;;12.45;;
14203;SDS011;7185;51.854;6.622;2023-05-13T06:25:17;15.18;;;11.63;;
14203;SDS011;7185;51.854;6.622;2023-05-13T06:27:51;18.15;;;13.05;;
14203;SDS011;7185;51.854;6.622;2023-05-13T06:30:22;18.92;;;12.18;;
14203;SDS011;7185;51.854;6.622;2023-05-13T06:32:54;19.90;;;12.50;;
14203;SDS011;7185;51.854;6.622;2023-05-13T06:35:26;17.05;;;13.20;;
14203;SDS011;7185;51.854;6.622;2023-05-13T06:37:57;18.45;;;12.95;;
14203;SDS011;7185;51.854;6.622;2023-05-13T06:40:29;17.20;;;12.63;;
14203;SDS011;7185;51.854;6.622;2023-05-13T06:43:11;16.63;;;13.00;;
14203;SDS011;7185;51.854;6.622;2023-05-13T06:45:45;19.58;;;12.73;;
14203;SDS011;7185;51.854;6.622;2023-05-13T06:48:17;17.35;;;12.68;;
14203;SDS011;7185;51.854;6.622;2023-05-13T06:50:49;15.35;;;12.75;;
14203;SDS011;7185;51.854;6.622;2023-05-13T06:53:23;20.05;;;12.60;;
14203;SDS011;7185;51.854;6.622;2023-05-13T06:56:03;18.02;;;13.15;;
14203;SDS011;7185;51.854;6.622;2023-05-13T06:58:37;16.75;;;11.63;;
14203;SDS011;7185;51.854;6.622;2023-05-13T07:01:08;16.85;;;11.85;;
14203;SDS011;7185;51.854;6.622;2023-05-13T07:03:40;15.80;;;12.00;;
14203;SDS011;7185;51.854;6.622;2023-05-13T07:06:12;20.95;;;12.48;;
14203;SDS011;7185;51.854;6.622;2023-05-13T07:08:43;16.35;;;12.13;;
14203;SDS011;7185;51.854;6.622;2023-05-13T07:11:18;14.80;;;11.27;;
14203;SDS011;7185;51.854;6.622;2023-05-13T07:13:53;16.33;;;11.75;;
14203;SDS011;7185;51.854;6.622;2023-05-13T07:16:24;17.30;;;12.02;;
14203;SDS011;7185;51.854;6.622;2023-05-13T07:18:56;18.80;;;11.52;;
14203;SDS011;7185;51.854;6.622;2023-05-13T07:21:28;16.00;;;11.20;;
14203;SDS011;7185;51.854;6.622;2023-05-13T07:24:00;17.77;;;11.75;;
14203;SDS011;7185;51.854;6.622;2023-05-13T07:26:34;17.20;;;12.45;;
14203;SDS011;7185;51.854;6.622;2023-05-13T07:29:07;20.33;;;12.07;;
14203;SDS011;7185;51.854;6.622;2023-05-13T07:31:39;17.42;;;11.25;;
14203;SDS011;7185;51.854;6.622;2023-05-13T07:34:11;15.95;;;12.32;;
14203;SDS011;7185;51.854;6.622;2023-05-13T07:36:42;16.38;;;11.50;;
14203;SDS011;7185;51.854;6.622;2023-05-13T07:39:15;14.30;;;11.25;;
14203;SDS011;7185;51.854;6.622;2023-05-13T07:41:47;12.70;;;10.68;;
14203;SDS011;7185;51.854;6.622;2023-05-13T07:44:21;14.63;;;11.63;;
14203;SDS011;7185;51.854;6.622;2023-05-13T07:46:52;14.65;;;11.25;;
14203;SDS011;7185;51.854;6.622;2023-05-13T07:49:24;17.10;;;11.30;;
14203;SDS011;7185;51.854;6.622;2023-05-13T07:51:56;14.20;;;11.07;;
14203;SDS011;7185;51.854;6.622;2023-05-13T07:54:28;14.02;;;10.93;;
14203;SDS011;7185;51.854;6.622;2023-05-13T07:57:01;14.05;;;10.85;;
14203;SDS011;7185;51.854;6.622;2023-05-13T07:59:39;17.38;;;11.10;;
14203;SDS011;7185;51.854;6.622;2023-05-13T08:02:13;13.63;;;10.65;;
14203;SDS011;7185;51.854;6.622;2023-05-13T08:04:44;14.32;;;10.52;;
14203;SDS011;7185;51.854;6.622;2023-05-13T08:07:16;12.35;;;10.50;;
14203;SDS011;7185;51.854;6.622;2023-05-13T08:09:48;16.35;;;10.98;;
14203;SDS011;7185;51.854;6.622;2023-05-13T08:12:20;13.05;;;10.40;;
14203;SDS011;7185;51.854;6.622;2023-05-13T08:14:53;12.88;;;9.70;;
14203;SDS011;7185;51.854;6.622;2023-05-13T08:17:26;14.13;;;10.45;;
14203;SDS011;7185;51.854;6.622;2023-05-13T08:19:59;13.15;;;9.73;;
14203;SDS011;7185;51.854;6.622;2023-05-13T08:22:31;15.35;;;10.27;;
14203;SDS011;7185;51.854;6.622;2023-05-13T08:25:03;15.32;;;10.75;;
14203;SDS011;7185;51.854;6.622;2023-05-13T08:27:35;15.02;;;10.27;;
14203;SDS011;7185;51.854;6.622;2023-05-13T08:30:08;12.00;;;8.70;;
14203;SDS011;7185;51.854;6.622;2023-05-13T08:32:40;12.05;;;9.38;;
14203;SDS011;7185;51.854;6.622;2023-05-13T08:35:12;10.20;;;7.55;;
14203;SDS011;7185;51.854;6.622;2023-05-13T08:37:44;12.80;;;8.20;;
14203;SDS011;7185;51.854;6.622;2023-05-13T08:40:16;12.90;;;7.78;;
14203;SDS011;7185;51.854;6.622;2023-05-13T08:42:51;17.30;;;8.68;;
14203;SDS011;7185;51.854;6.622;2023-05-13T08:45:28;13.13;;;8.20;;
14203;SDS011;7185;51.854;6.622;2023-05-13T08:48:09;11.48;;;8.32;;
14203;SDS011;7185;51.854;6.622;2023-05-13T08:50:42;13.27;;;8.18;;
14203;SDS011;7185;51.854;6.622;2023-05-13T08:53:15;15.70;;;7.90;;
14203;SDS011;7185;51.854;6.622;2023-05-13T08:55:47;16.83;;;7.72;;
14203;SDS011;7185;51.854;6.622;2023-05-13T08:58:20;10.00;;;7.18;;
14203;SDS011;7185;51.854;6.622;2023-05-13T09:00:53;11.27;;;6.90;;
14203;SDS011;7185;51.854;6.622;2023-05-13T09:03:26;12.18;;;7.30;;
14203;SDS011;7185;51.854;6.622;2023-05-13T09:05:59;11.80;;;7.05;;
14203;SDS011;7185;51.854;6.622;2023-05-13T09:08:30;9.52;;;6.78;;
14203;SDS011;7185;51.854;6.622;2023-05-13T09:11:02;10.05;;;6.40;;
14203;SDS011;7185;51.854;6.622;2023-05-13T09:13:35;12.13;;;6.75;;
14203;SDS011;7185;51.854;6.622;2023-05-13T09:16:10;12.10;;;6.82;;
14203;SDS011;7185;51.854;6.622;2023-05-13T09:18:45;11.90;;;6.30;;
14203;SDS011;7185;51.854;6.622;2023-05-13T09:21:23;11.40;;;6.38;;
14203;SDS011;7185;51.854;6.622;2023-05-13T09:24:06;10.27;;;6.05;;
14203;SDS011;7185;51.854;6.622;2023-05-13T09:26:51;12.45;;;6.18;;
14203;SDS011;7185;51.854;6.622;2023-05-13T09:29:25;12.38;;;5.82;;
14203;SDS011;7185;51.854;6.622;2023-05-13T09:32:00;8.32;;;6.03;;
14203;SDS011;7185;51.854;6.622;2023-05-13T09:34:32;10.95;;;5.75;;
14203;SDS011;7185;51.854;6.622;2023-05-13T09:37:05;9.05;;;5.43;;
14203;SDS011;7185;51.854;6.622;2023-05-13T09:39:38;10.05;;;6.45;;
14203;SDS011;7185;51.854;6.622;2023-05-13T09:42:13;9.35;;;5.40;;
14203;SDS011;7185;51.854;6.622;2023-05-13T09:44:46;11.82;;;5.53;;
14203;SDS011;7185;51.854;6.622;2023-05-13T09:47:20;8.00;;;5.20;;
14203;SDS011;7185;51.854;6.622;2023-05-13T09:49:55;8.13;;;5.40;;
14203;SDS011;7185;51.854;6.622;2023-05-13T09:52:27;8.82;;;5.18;;
14203;SDS011;7185;51.854;6.622;2023-05-13T09:55:00;9.60;;;5.07;;
14203;SDS011;7185;51.854;6.622;2023-05-13T09:57:34;7.43;;;5.40;;
14203;SDS011;7185;51.854;6.622;2023-05-13T10:00:07;5.70;;;4.30;;
14203;SDS011;7185;51.854;6.622;2023-05-13T10:02:40;8.70;;;4.47;;
14203;SDS011;7185;51.854;6.622;2023-05-13T10:05:12;7.95;;;4.35;;
14203;SDS011;7185;51.854;6.622;2023-05-13T10:07:44;8.30;;;4.60;;
14203;SDS011;7185;51.854;6.622;2023-05-13T10:10:16;11.45;;;4.95;;
14203;SDS011;7185;51.854;6.622;2023-05-13T10:12:48;6.97;;;4.80;;
14203;SDS011;7185;51.854;6.622;2023-05-13T10:15:21;11.10;;;4.78;;
14203;SDS011;7185;51.854;6.622;2023-05-13T10:17:55;6.78;;;3.90;;
14203;SDS011;7185;51.854;6.622;2023-05-13T10:20:31;14.27;;;4.45;;
14203;SDS011;7185;51.854;6.622;2023-05-13T10:23:03;4.97;;;3.70;;
14203;SDS011;7185;51.854;6.622;2023-05-13T10:25:35;6.85;;;4.22;;
14203;SDS011;7185;51.854;6.622;2023-05-13T10:28:07;9.27;;;4.53;;
14203;SDS011;7185;51.854;6.622;2023-05-13T10:30:40;8.70;;;4.43;;
14203;SDS011;7185;51.854;6.622;2023-05-13T10:33:14;8.25;;;4.30;;
14203;SDS011;7185;51.854;6.622;2023-05-13T10:35:49;5.72;;;4.20;;
14203;SDS011;7185;51.854;6.622;2023-05-13T10:38:33;9.05;;;4.15;;
14203;SDS011;7185;51.854;6.622;2023-05-13T10:41:26;9.13;;;4.10;;
14203;SDS011;7185;51.854;6.622;2023-05-13T10:44:09;6.63;;;4.20;;
14203;SDS011;7185;51.854;6.622;2023-05-13T10:46:41;7.30;;;4.18;;
14203;SDS011;7185;51.854;6.622;2023-05-13T10:49:14;7.57;;;4.10;;
14203;SDS011;7185;51.854;6.622;2023-05-13T10:51:48;15.27;;;4.43;;
14203;SDS011;7185;51.854;6.622;2023-05-13T10:54:21;10.02;;;3.70;;
14203;SDS011;7185;51.854;6.622;2023-05-13T10:56:57;6.82;;;4.05;;
14203;SDS011;7185;51.854;6.622;2023-05-13T10:59:31;7.10;;;4.00;;
14203;SDS011;7185;51.854;6.622;2023-05-13T11:02:18;7.60;;;4.15;;
14203;SDS011;7185;51.854;6.622;2023-05-13T11:05:02;10.07;;;4.38;;
14203;SDS011;7185;51.854;6.622;2023-05-13T11:07:38;6.35;;;3.53;;
14203;SDS011;7185;51.854;6.622;2023-05-13T11:10:22;6.95;;;4.22;;
14203;SDS011;7185;51.854;6.622;2023-05-13T11:13:19;8.88;;;3.95;;
14203;SDS011;7185;51.854;6.622;2023-05-13T11:15:53;5.93;;;3.70;;
14203;SDS011;7185;51.854;6.622;2023-05-13T11:18:28;6.30;;;3.75;;
14203;SDS011;7185;51.854;6.622;2023-05-13T11:21:05;5.25;;;3.40;;
14203;SDS011;7185;51.854;6.622;2023-05-13T11:23:50;7.25;;;3.70;;
14203;SDS011;7185;51.854;6.622;2023-05-13T11:26:26;6.65;;;3.85;;
14203;SDS011;7185;51.854;6.622;2023-05-13T11:29:14;8.30;;;3.53;;
14203;SDS011;7185;51.854;6.622;2023-05-13T11:31:57;5.07;;;3.50;;
14203;SDS011;7185;51.854;6.622;2023-05-13T11:34:30;6.97;;;3.42;;
14203;SDS011;7185;51.854;6.622;2023-05-13T11:37:08;8.23;;;3.95;;
14203;SDS011;7185;51.854;6.622;2023-05-13T11:39:41;6.68;;;3.45;;
14203;SDS011;7185;51.854;6.622;2023-05-13T11:42:12;11.32;;;3.53;;
14203;SDS011;7185;51.854;6.622;2023-05-13T11:44:45;9.02;;;3.33;;
14203;SDS011;7185;51.854;6.622;2023-05-13T11:47:24;6.38;;;3.17;;
14203;SDS011;7185;51.854;6.622;2023-05-13T11:49:57;8.20;;;3.58;;
14203;SDS011;7185;51.854;6.622;2023-05-13T11:52:30;6.47;;;3.00;;
14203;SDS011;7185;51.854;6.622;2023-05-13T11:55:02;9.32;;;3.15;;
14203;SDS011;7185;51.854;6.622;2023-05-13T11:57:34;6.30;;;3.20;;
14203;SDS011;7185;51.854;6.622;2023-05-13T12:00:06;4.55;;;3.25;;
14203;SDS011;7185;51.854;6.622;2023-05-13T12:02:41;5.20;;;3.30;;
14203;SDS011;7185;51.854;6.622;2023-05-13T12:05:15;6.63;;;3.30;;
14203;SDS011;7185;51.854;6.622;2023-05-13T12:07:48;5.10;;;3.28;;
14203;SDS011;7185;51.854;6.622;2023-05-13T12:10:22;4.55;;;2.83;;
14203;SDS011;7185;51.854;6.622;2023-05-13T12:12:54;9.27;;;3.28;;
14203;SDS011;7185;51.854;6.622;2023-05-13T12:15:26;5.93;;;3.85;;
14203;SDS011;7185;51.854;6.622;2023-05-13T12:17:58;4.65;;;3.45;;
14203;SDS011;7185;51.854;6.622;2023-05-13T12:20:30;5.15;;;3.45;;
14203;SDS011;7185;51.854;6.622;2023-05-13T12:23:08;8.77;;;3.90;;
14203;SDS011;7185;51.854;6.622;2023-05-13T12:25:45;5.43;;;3.22;;
14203;SDS011;7185;51.854;6.622;2023-05-13T12:28:20;6.95;;;3.20;;
14203;SDS011;7185;51.854;6.622;2023-05-13T12:30:54;5.65;;;3.22;;
14203;SDS011;7185;51.854;6.622;2023-05-13T12:33:28;5.65;;;3.35;;
14203;SDS011;7185;51.854;6.622;2023-05-13T12:36:16;5.88;;;3.20;;
14203;SDS011;7185;51.854;6.622;2023-05-13T12:38:55;5.50;;;3.17;;
14203;SDS011;7185;51.854;6.622;2023-05-13T12:41:28;8.15;;;3.20;;
14203;SDS011;7185;51.854;6.622;2023-05-13T12:44:00;7.10;;;3.28;;
14203;SDS011;7185;51.854;6.622;2023-05-13T12:46:34;7.45;;;3.45;;
14203;SDS011;7185;51.854;6.622;2023-05-13T12:49:07;5.95;;;3.42;;
14203;SDS011;7185;51.854;6.622;2023-05-13T12:51:41;9.70;;;3.50;;
14203;SDS011;7185;51.854;6.622;2023-05-13T12:54:14;7.00;;;3.20;;
14203;SDS011;7185;51.854;6.622;2023-05-13T12:56:45;7.93;;;3.67;;
14203;SDS011;7185;51.854;6.622;2023-05-13T12:59:17;5.80;;;3.47;;
14203;SDS011;7185;51.854;6.622;2023-05-13T13:01:49;6.45;;;3.47;;
14203;SDS011;7185;51.854;6.622;2023-05-13T13:04:23;6.18;;;3.42;;
14203;SDS011;7185;51.854;6.622;2023-05-13T13:06:54;8.60;;;3.75;;
14203;SDS011;7185;51.854;6.622;2023-05-13T13:09:27;6.88;;;3.17;;
14203;SDS011;7185;51.854;6.622;2023-05-13T13:11:59;5.55;;;3.13;;
14203;SDS011;7185;51.854;6.622;2023-05-13T13:14:31;6.60;;;3.10;;
14203;SDS011;7185;51.854;6.622;2023-05-13T13:17:02;5.45;;;2.92;;
14203;SDS011;7185;51.854;6.622;2023-05-13T13:19:34;6.47;;;3.03;;
14203;SDS011;7185;51.854;6.622;2023-05-13T13:22:06;6.00;;;2.90;;
14203;SDS011;7185;51.854;6.622;2023-05-13T13:24:39;8.43;;;3.30;;
14203;SDS011;7185;51.854;6.622;2023-05-13T13:27:10;5.85;;;3.50;;
14203;SDS011;7185;51.854;6.622;2023-05-13T13:29:42;8.13;;;3.25;;
14203;SDS011;7185;51.854;6.622;2023-05-13T13:32:14;6.57;;;3.47;;
14203;SDS011;7185;51.854;6.622;2023-05-13T13:34:45;9.77;;;3.55;;
14203;SDS011;7185;51.854;6.622;2023-05-13T13:37:19;4.40;;;3.30;;
14203;SDS011;7185;51.854;6.622;2023-05-13T13:39:57;4.45;;;3.35;;
14203;SDS011;7185;51.854;6.622;2023-05-13T13:42:28;6.00;;;3.30;;
14203;SDS011;7185;51.854;6.622;2023-05-13T13:45:00;6.93;;;3.35;;
14203;SDS011;7185;51.854;6.622;2023-05-13T13:47:38;5.53;;;3.30;;
14203;SDS011;7185;51.854;6.622;2023-05-13T13:50:10;5.80;;;3.22;;
14203;SDS011;7185;51.854;6.622;2023-05-13T13:52:42;6.60;;;3.63;;
14203;SDS011;7185;51.854;6.622;2023-05-13T13:55:15;6.63;;;3.50;;
14203;SDS011;7185;51.854;6.622;2023-05-13T13:57:54;11.35;;;3.53;;
14203;SDS011;7185;51.854;6.622;2023-05-13T14:00:27;5.05;;;3.42;;
14203;SDS011;7185;51.854;6.622;2023-05-13T14:03:01;6.50;;;3.15;;
14203;SDS011;7185;51.854;6.622;2023-05-13T14:05:33;10.00;;;3.58;;
14203;SDS011;7185;51.854;6.622;2023-05-13T14:08:05;6.20;;;3.35;;
14203;SDS011;7185;51.854;6.622;2023-05-13T14:10:39;8.43;;;3.30;;
14203;SDS011;7185;51.854;6.622;2023-05-13T14:13:10;8.25;;;3.58;;
14203;SDS011;7185;51.854;6.622;2023-05-13T14:15:42;6.30;;;3.55;;
14203;SDS011;7185;51.854;6.622;2023-05-13T14:18:13;9.05;;;3.65;;
14203;SDS011;7185;51.854;6.622;2023-05-13T14:20:45;7.20;;;3.47;;
14203;SDS011;7185;51.854;6.622;2023-05-13T14:23:19;7.18;;;3.40;;
14203;SDS011;7185;51.854;6.622;2023-05-13T14:25:52;9.68;;;3.75;;
14203;SDS011;7185;51.854;6.622;2023-05-13T14:28:23;6.60;;;2.83;;
14203;SDS011;7185;51.854;6.622;2023-05-13T14:30:55;8.18;;;3.20;;
14203;SDS011;7185;51.854;6.622;2023-05-13T14:33:27;4.68;;;2.97;;
14203;SDS011;7185;51.854;6.622;2023-05-13T14:35:58;8.60;;;3.28;;
14203;SDS011;7185;51.854;6.622;2023-05-13T14:38:30;6.80;;;3.00;;
14203;SDS011;7185;51.854;6.622;2023-05-13T14:41:03;7.32;;;3.58;;
14203;SDS011;7185;51.854;6.622;2023-05-13T14:43:35;4.60;;;3.10;;
14203;SDS011;7185;51.854;6.622;2023-05-13T14:46:06;6.65;;;3.60;;
14203;SDS011;7185;51.854;6.622;2023-05-13T14:48:38;4.35;;;3.22;;
14203;SDS011;7185;51.854;6.622;2023-05-13T14:51:10;7.00;;;3.42;;
14203;SDS011;7185;51.854;6.622;2023-05-13T14:53:41;12.10;;;3.38;;
14203;SDS011;7185;51.854;6.622;2023-05-13T14:56:14;7.88;;;3.20;;
14203;SDS011;7185;51.854;6.622;2023-05-13T14:58:46;5.45;;;3.10;;
14203;SDS011;7185;51.854;6.622;2023-05-13T15:01:17;4.50;;;3.17;;
14203;SDS011;7185;51.854;6.622;2023-05-13T15:03:49;6.78;;;3.35;;
14203;SDS011;7185;51.854;6.622;2023-05-13T15:06:21;11.50;;;3.42;;
14203;SDS011;7185;51.854;6.622;2023-05-13T15:08:52;7.22;;;3.17;;
14203;SDS011;7185;51.854;6.622;2023-05-13T15:11:26;6.60;;;3.20;;
14203;SDS011;7185;51.854;6.622;2023-05-13T15:13:58;9.23;;;3.83;;
14203;SDS011;7185;51.854;6.622;2023-05-13T15:16:29;8.23;;;3.70;;
14203;SDS011;7185;51.854;6.622;2023-05-13T15:19:01;4.60;;;3.13;;
14203;SDS011;7185;51.854;6.622;2023-05-13T15:21:33;7.30;;;3.10;;
14203;SDS011;7185;51.854;6.622;2023-05-13T15:24:05;6.38;;;2.90;;